sensor_id;sensor_type;location;lat;lon;timestamp;pressure;altitude;pressure_sealevel;temperature;humidity
44148;BME280;29810;55.848;37.368;2023-02-13T00:02:44;99317.75;;;-6.83;86.32
44148;BME280;29810;55.848;37.368;2023-02-13T00:05:46;99326.69;;;-6.69;85.40
44148;BME280;29810;55.848;37.368;2023-02-13T00:08:47;99309.72;;;-6.70;85.22
44148;BME280;29810;55.848;37.368;2023-02-13T00:11:51;99316.22;;;-6.52;84.89
44148;BME280;29810;55.848;37.368;2023-02-13T00:14:52;99313.91;;;-6.46;84.17
44148;BME280;29810;55.848;37.368;2023-02-13T00:17:55;99299.37;;;-6.50;83.06
44148;BME280;29810;55.848;37.368;2023-02-13T00:21:01;99290.09;;;-6.50;83.72
44148;BME280;29810;55.848;37.368;2023-02-13T00:24:05;99288.38;;;-6.51;82.80
44148;BME280;29810;55.848;37.368;2023-02-13T00:27:06;99285.69;;;-6.55;83.35
44148;BME280;29810;55.848;37.368;2023-02-13T00:30:09;99275.84;;;-6.46;83.54
44148;BME280;29810;55.848;37.368;2023-02-13T00:33:10;99250.97;;;-6.56;83.31
44148;BME280;29810;55.848;37.368;2023-02-13T00:36:16;99267.03;;;-6.30;83.32
44148;BME280;29810;55.848;37.368;2023-02-13T00:39:19;99261.16;;;-6.29;82.10
44148;BME280;29810;55.848;37.368;2023-02-13T00:42:22;99262.78;;;-6.31;82.26
44148;BME280;29810;55.848;37.368;2023-02-13T00:45:26;99258.03;;;-6.47;81.10
44148;BME280;29810;55.848;37.368;2023-02-13T00:48:29;99239.22;;;-6.54;81.74
44148;BME280;29810;55.848;37.368;2023-02-13T00:51:30;99246.41;;;-6.41;81.42
44148;BME280;29810;55.848;37.368;2023-02-13T00:54:33;99237.56;;;-6.52;81.01
44148;BME280;29810;55.848;37.368;2023-02-13T00:57:34;99242.78;;;-6.49;81.27
44148;BME280;29810;55.848;37.368;2023-02-13T01:00:38;99226.28;;;-6.62;80.60
44148;BME280;29810;55.848;37.368;2023-02-13T01:03:39;99244.00;;;-6.63;80.47
44148;BME280;29810;55.848;37.368;2023-02-13T01:06:42;99244.28;;;-6.54;81.36
44148;BME280;29810;55.848;37.368;2023-02-13T01:09:43;99230.50;;;-6.62;80.61
44148;BME280;29810;55.848;37.368;2023-02-13T01:12:45;99239.50;;;-6.45;81.30
44148;BME280;29810;55.848;37.368;2023-02-13T01:15:47;99236.25;;;-6.41;80.62
44148;BME280;29810;55.848;37.368;2023-02-13T01:18:49;99231.09;;;-6.44;79.89
44148;BME280;29810;55.848;37.368;2023-02-13T01:21:50;99230.94;;;-6.49;80.11
44148;BME280;29810;55.848;37.368;2023-02-13T01:24:53;99223.47;;;-6.44;80.27
44148;BME280;29810;55.848;37.368;2023-02-13T01:27:55;99205.88;;;-6.38;80.69
44148;BME280;29810;55.848;37.368;2023-02-13T01:30:58;99210.50;;;-6.26;80.76
44148;BME280;29810;55.848;37.368;2023-02-13T01:33:59;99201.44;;;-6.18;79.71
44148;BME280;29810;55.848;37.368;2023-02-13T01:37:02;99197.47;;;-6.37;78.78
44148;BME280;29810;55.848;37.368;2023-02-13T01:40:05;99187.53;;;-6.58;79.29
44148;BME280;29810;55.848;37.368;2023-02-13T01:43:08;99194.16;;;-6.61;80.39
44148;BME280;29810;55.848;37.368;2023-02-13T01:46:15;99186.16;;;-6.48;80.41
44148;BME280;29810;55.848;37.368;2023-02-13T01:49:22;99169.16;;;-6.51;79.74
44148;BME280;29810;55.848;37.368;2023-02-13T01:52:24;99181.47;;;-6.61;79.81
44148;BME280;29810;55.848;37.368;2023-02-13T01:55:27;99169.63;;;-6.62;80.44
44148;BME280;29810;55.848;37.368;2023-02-13T01:58:31;99165.50;;;-6.59;80.92
44148;BME280;29810;55.848;37.368;2023-02-13T02:01:35;99143.09;;;-6.45;80.83
44148;BME280;29810;55.848;37.368;2023-02-13T02:04:38;99149.16;;;-6.40;80.11
44148;BME280;29810;55.848;37.368;2023-02-13T02:07:43;99145.47;;;-6.50;79.74
44148;BME280;29810;55.848;37.368;2023-02-13T02:10:47;99139.63;;;-6.47;80.44
44148;BME280;29810;55.848;37.368;2023-02-13T02:13:50;99138.16;;;-6.40;80.27
44148;BME280;29810;55.848;37.368;2023-02-13T02:17:23;99140.47;;;-6.48;80.24
44148;BME280;29810;55.848;37.368;2023-02-13T02:20:44;99139.97;;;-6.65;80.02
44148;BME280;29810;55.848;37.368;2023-02-13T02:27:31;99123.56;;;-6.47;80.58
44148;BME280;29810;55.848;37.368;2023-02-13T02:34:42;99118.19;;;-6.29;80.45
44148;BME280;29810;55.848;37.368;2023-02-13T02:48:25;99098.97;;;-6.50;81.40
44148;BME280;29810;55.848;37.368;2023-02-13T02:59:01;99082.56;;;-6.02;81.47
44148;BME280;29810;55.848;37.368;2023-02-13T03:02:22;99062.44;;;-5.94;81.71
44148;BME280;29810;55.848;37.368;2023-02-13T03:05:46;99065.53;;;-6.06;81.84
44148;BME280;29810;55.848;37.368;2023-02-13T03:09:10;99062.84;;;-6.11;82.50
44148;BME280;29810;55.848;37.368;2023-02-13T03:12:51;99062.59;;;-6.20;83.09
44148;BME280;29810;55.848;37.368;2023-02-13T03:16:16;99059.69;;;-6.04;83.90
44148;BME280;29810;55.848;37.368;2023-02-13T03:23:15;99043.09;;;-5.89;83.45
44148;BME280;29810;55.848;37.368;2023-02-13T03:27:05;99020.13;;;-5.94;83.67
44148;BME280;29810;55.848;37.368;2023-02-13T03:30:03;99020.34;;;-5.85;83.26
44148;BME280;29810;55.848;37.368;2023-02-13T03:36:32;98990.47;;;-5.95;83.37
44148;BME280;29810;55.848;37.368;2023-02-13T03:40:07;98982.41;;;-5.78;83.24
44148;BME280;29810;55.848;37.368;2023-02-13T03:43:14;98984.34;;;-5.70;83.29
44148;BME280;29810;55.848;37.368;2023-02-13T03:46:19;98989.72;;;-5.56;82.95
44148;BME280;29810;55.848;37.368;2023-02-13T03:49:26;98980.53;;;-5.51;82.51
44148;BME280;29810;55.848;37.368;2023-02-13T03:52:57;98994.81;;;-5.56;82.26
44148;BME280;29810;55.848;37.368;2023-02-13T03:56:01;98987.22;;;-5.54;82.68
44148;BME280;29810;55.848;37.368;2023-02-13T03:59:27;98992.44;;;-5.50;82.86
44148;BME280;29810;55.848;37.368;2023-02-13T04:02:33;98978.03;;;-5.49;82.85
44148;BME280;29810;55.848;37.368;2023-02-13T04:05:42;98988.69;;;-5.29;83.62
44148;BME280;29810;55.848;37.368;2023-02-13T04:08:45;98984.78;;;-5.14;82.90
44148;BME280;29810;55.848;37.368;2023-02-13T04:11:57;98981.09;;;-5.27;82.45
44148;BME280;29810;55.848;37.368;2023-02-13T04:15:06;98970.91;;;-5.27;83.38
44148;BME280;29810;55.848;37.368;2023-02-13T04:18:26;98953.31;;;-5.18;83.75
44148;BME280;29810;55.848;37.368;2023-02-13T04:21:35;98950.34;;;-4.99;84.00
44148;BME280;29810;55.848;37.368;2023-02-13T04:24:39;98949.75;;;-4.87;83.87
44148;BME280;29810;55.848;37.368;2023-02-13T04:27:40;98949.91;;;-4.79;83.64
44148;BME280;29810;55.848;37.368;2023-02-13T04:30:43;98938.34;;;-4.63;83.95
44148;BME280;29810;55.848;37.368;2023-02-13T04:33:44;98938.16;;;-4.72;82.73
44148;BME280;29810;55.848;37.368;2023-02-13T04:36:47;98931.12;;;-4.86;82.54
44148;BME280;29810;55.848;37.368;2023-02-13T04:39:48;98919.16;;;-4.91;83.41
44148;BME280;29810;55.848;37.368;2023-02-13T04:42:51;98918.25;;;-4.93;83.68
44148;BME280;29810;55.848;37.368;2023-02-13T04:45:52;98917.59;;;-4.85;83.94
44148;BME280;29810;55.848;37.368;2023-02-13T04:48:55;98917.25;;;-5.02;83.59
44148;BME280;29810;55.848;37.368;2023-02-13T04:51:56;98904.22;;;-5.17;84.12
44148;BME280;29810;55.848;37.368;2023-02-13T04:55:00;98888.50;;;-5.37;84.96
44148;BME280;29810;55.848;37.368;2023-02-13T04:58:01;98884.56;;;-5.24;85.65
44148;BME280;29810;55.848;37.368;2023-02-13T05:01:14;98890.00;;;-5.06;85.66
44148;BME280;29810;55.848;37.368;2023-02-13T05:04:16;98881.97;;;-4.85;85.52
44148;BME280;29810;55.848;37.368;2023-02-13T05:07:19;98869.28;;;-4.83;84.94
44148;BME280;29810;55.848;37.368;2023-02-13T05:10:21;98865.28;;;-4.72;85.06
44148;BME280;29810;55.848;37.368;2023-02-13T05:13:24;98866.19;;;-4.67;84.84
44148;BME280;29810;55.848;37.368;2023-02-13T05:16:25;98863.16;;;-4.47;84.64
44148;BME280;29810;55.848;37.368;2023-02-13T05:19:28;98854.41;;;-4.61;84.31
44148;BME280;29810;55.848;37.368;2023-02-13T05:22:32;98876.56;;;-4.57;84.43
44148;BME280;29810;55.848;37.368;2023-02-13T05:25:54;98870.38;;;-4.70;84.16
44148;BME280;29810;55.848;37.368;2023-02-13T05:28:55;98856.38;;;-4.94;84.98
44148;BME280;29810;55.848;37.368;2023-02-13T05:32:15;98852.13;;;-4.93;85.58
44148;BME280;29810;55.848;37.368;2023-02-13T05:35:21;98858.19;;;-4.87;85.68
44148;BME280;29810;55.848;37.368;2023-02-13T05:38:44;98854.56;;;-4.98;86.11
44148;BME280;29810;55.848;37.368;2023-02-13T05:42:37;98851.47;;;-4.85;86.12
44148;BME280;29810;55.848;37.368;2023-02-13T05:45:39;98845.59;;;-4.80;86.01
44148;BME280;29810;55.848;37.368;2023-02-13T05:48:43;98861.00;;;-4.73;85.54
44148;BME280;29810;55.848;37.368;2023-02-13T05:51:45;98862.47;;;-4.84;85.52
44148;BME280;29810;55.848;37.368;2023-02-13T05:54:48;98852.56;;;-4.72;85.87
44148;BME280;29810;55.848;37.368;2023-02-13T05:57:55;98854.53;;;-4.55;85.50
44148;BME280;29810;55.848;37.368;2023-02-13T06:00:57;98854.56;;;-4.54;84.92
44148;BME280;29810;55.848;37.368;2023-02-13T06:03:59;98854.69;;;-4.46;84.97
44148;BME280;29810;55.848;37.368;2023-02-13T06:07:01;98848.00;;;-4.39;84.60
44148;BME280;29810;55.848;37.368;2023-02-13T06:10:03;98844.00;;;-4.25;84.24
44148;BME280;29810;55.848;37.368;2023-02-13T06:13:04;98847.44;;;-4.24;84.12
44148;BME280;29810;55.848;37.368;2023-02-13T06:16:08;98851.75;;;-4.20;84.00
44148;BME280;29810;55.848;37.368;2023-02-13T06:19:09;98845.88;;;-4.16;84.12
44148;BME280;29810;55.848;37.368;2023-02-13T06:22:11;98841.81;;;-4.05;84.17
44148;BME280;29810;55.848;37.368;2023-02-13T06:25:13;98841.75;;;-4.08;84.13
44148;BME280;29810;55.848;37.368;2023-02-13T06:28:15;98846.91;;;-4.05;83.29
44148;BME280;29810;55.848;37.368;2023-02-13T06:31:17;98843.47;;;-4.07;83.87
44148;BME280;29810;55.848;37.368;2023-02-13T06:34:18;98829.44;;;-3.80;83.81
44148;BME280;29810;55.848;37.368;2023-02-13T06:37:20;98825.31;;;-3.72;82.30
44148;BME280;29810;55.848;37.368;2023-02-13T06:40:21;98814.41;;;-3.61;83.25
44148;BME280;29810;55.848;37.368;2023-02-13T06:43:23;98816.25;;;-3.53;82.27
44148;BME280;29810;55.848;37.368;2023-02-13T06:46:25;98816.94;;;-3.64;81.95
44148;BME280;29810;55.848;37.368;2023-02-13T06:49:26;98811.25;;;-3.45;82.63
44148;BME280;29810;55.848;37.368;2023-02-13T06:52:28;98809.53;;;-3.44;81.75
44148;BME280;29810;55.848;37.368;2023-02-13T06:55:30;98808.53;;;-3.54;81.68
44148;BME280;29810;55.848;37.368;2023-02-13T06:58:32;98805.22;;;-3.50;82.13
44148;BME280;29810;55.848;37.368;2023-02-13T07:01:34;98796.78;;;-3.46;82.11
44148;BME280;29810;55.848;37.368;2023-02-13T07:04:35;98791.72;;;-3.43;82.77
44148;BME280;29810;55.848;37.368;2023-02-13T07:07:38;98792.03;;;-3.15;83.11
44148;BME280;29810;55.848;37.368;2023-02-13T07:10:41;98787.94;;;-3.02;81.91
44148;BME280;29810;55.848;37.368;2023-02-13T07:13:42;98776.25;;;-2.81;81.71
44148;BME280;29810;55.848;37.368;2023-02-13T07:16:44;98775.41;;;-2.79;80.33
44148;BME280;29810;55.848;37.368;2023-02-13T07:19:45;98751.78;;;-2.59;80.59
44148;BME280;29810;55.848;37.368;2023-02-13T07:22:47;98762.25;;;-2.25;78.58
44148;BME280;29810;55.848;37.368;2023-02-13T07:25:51;98763.25;;;-2.08;78.61
44148;BME280;29810;55.848;37.368;2023-02-13T07:28:54;98749.72;;;-1.88;78.05
44148;BME280;29810;55.848;37.368;2023-02-13T07:31:55;98756.69;;;-1.61;78.10
44148;BME280;29810;55.848;37.368;2023-02-13T07:34:59;98742.94;;;-1.85;77.63
44148;BME280;29810;55.848;37.368;2023-02-13T07:38:00;98742.13;;;-1.79;78.43
44148;BME280;29810;55.848;37.368;2023-02-13T07:41:03;98735.25;;;-1.89;77.64
44148;BME280;29810;55.848;37.368;2023-02-13T07:44:04;98743.66;;;-2.09;79.02
44148;BME280;29810;55.848;37.368;2023-02-13T07:47:06;98735.22;;;-1.92;79.64
44148;BME280;29810;55.848;37.368;2023-02-13T07:50:08;98743.81;;;-1.78;78.31
44148;BME280;29810;55.848;37.368;2023-02-13T07:53:10;98733.66;;;-1.62;79.18
44148;BME280;29810;55.848;37.368;2023-02-13T07:56:11;98718.44;;;-1.42;78.73
44148;BME280;29810;55.848;37.368;2023-02-13T07:59:13;98726.00;;;-1.62;77.43
44148;BME280;29810;55.848;37.368;2023-02-13T08:02:15;98718.28;;;-1.75;78.08
44148;BME280;29810;55.848;37.368;2023-02-13T08:05:17;98725.19;;;-1.49;78.61
44148;BME280;29810;55.848;37.368;2023-02-13T08:08:18;98716.75;;;-1.36;78.27
44148;BME280;29810;55.848;37.368;2023-02-13T08:11:32;98715.91;;;-1.35;77.91
44148;BME280;29810;55.848;37.368;2023-02-13T08:14:52;98721.75;;;-1.57;78.11
44148;BME280;29810;55.848;37.368;2023-02-13T08:17:54;98712.50;;;-1.32;79.31
44148;BME280;29810;55.848;37.368;2023-02-13T08:20:56;98718.53;;;-1.07;77.90
44148;BME280;29810;55.848;37.368;2023-02-13T08:23:57;98700.53;;;-1.30;77.88
44148;BME280;29810;55.848;37.368;2023-02-13T08:26:59;98703.09;;;-1.28;78.22
44148;BME280;29810;55.848;37.368;2023-02-13T08:30:01;98704.78;;;-1.34;78.29
44148;BME280;29810;55.848;37.368;2023-02-13T08:33:05;98685.16;;;-1.47;78.65
44148;BME280;29810;55.848;37.368;2023-02-13T08:36:07;98686.03;;;-1.39;78.18
44148;BME280;29810;55.848;37.368;2023-02-13T08:39:09;98685.16;;;-1.52;79.12
44148;BME280;29810;55.848;37.368;2023-02-13T08:42:11;98680.81;;;-1.68;79.91
44148;BME280;29810;55.848;37.368;2023-02-13T08:45:12;98679.06;;;-1.80;80.80
44148;BME280;29810;55.848;37.368;2023-02-13T08:48:14;98686.69;;;-1.88;81.93
44148;BME280;29810;55.848;37.368;2023-02-13T08:51:36;98673.97;;;-1.77;82.08
44148;BME280;29810;55.848;37.368;2023-02-13T08:55:52;98679.16;;;-1.55;82.30
44148;BME280;29810;55.848;37.368;2023-02-13T08:59:27;98663.00;;;-1.42;82.28
44148;BME280;29810;55.848;37.368;2023-02-13T09:03:04;98672.38;;;-1.38;81.61
44148;BME280;29810;55.848;37.368;2023-02-13T09:06:05;98669.78;;;-1.59;81.52
44148;BME280;29810;55.848;37.368;2023-02-13T09:09:07;98664.66;;;-1.53;82.30
44148;BME280;29810;55.848;37.368;2023-02-13T09:12:09;98663.03;;;-1.37;82.29
44148;BME280;29810;55.848;37.368;2023-02-13T09:15:10;98660.50;;;-1.17;82.17
44148;BME280;29810;55.848;37.368;2023-02-13T09:18:12;98658.81;;;-0.90;84.04
44148;BME280;29810;55.848;37.368;2023-02-13T09:21:13;98653.69;;;-0.59;83.12
44148;BME280;29810;55.848;37.368;2023-02-13T09:24:35;98646.00;;;-0.50;82.90
44148;BME280;29810;55.848;37.368;2023-02-13T09:28:48;98629.75;;;-0.27;84.59
44148;BME280;29810;55.848;37.368;2023-02-13T09:31:49;98622.88;;;-0.24;83.94
44148;BME280;29810;55.848;37.368;2023-02-13T09:34:51;98606.69;;;-0.38;84.18
44148;BME280;29810;55.848;37.368;2023-02-13T09:37:53;98599.88;;;-0.35;84.08
44148;BME280;29810;55.848;37.368;2023-02-13T09:40:58;98594.59;;;0.07;85.48
44148;BME280;29810;55.848;37.368;2023-02-13T09:44:09;98594.28;;;0.60;85.20
44148;BME280;29810;55.848;37.368;2023-02-13T09:50:33;98583.66;;;1.12;79.57
44148;BME280;29810;55.848;37.368;2023-02-13T09:53:35;98591.37;;;1.08;77.91
44148;BME280;29810;55.848;37.368;2023-02-13T10:00:05;98586.47;;;0.77;76.82
44148;BME280;29810;55.848;37.368;2023-02-13T10:03:25;98590.13;;;0.45;77.39
44148;BME280;29810;55.848;37.368;2023-02-13T10:06:37;98591.97;;;0.20;78.03
44148;BME280;29810;55.848;37.368;2023-02-13T10:10:01;98588.44;;;0.38;79.67
44148;BME280;29810;55.848;37.368;2023-02-13T10:16:38;98580.63;;;0.59;77.90
44148;BME280;29810;55.848;37.368;2023-02-13T10:19:46;98577.00;;;0.88;79.08
44148;BME280;29810;55.848;37.368;2023-02-13T10:22:54;98576.06;;;0.95;78.39
44148;BME280;29810;55.848;37.368;2023-02-13T10:26:00;98564.09;;;0.97;76.97
44148;BME280;29810;55.848;37.368;2023-02-13T10:29:05;98571.00;;;0.91;77.94
44148;BME280;29810;55.848;37.368;2023-02-13T10:35:46;98552.19;;;0.87;78.85
44148;BME280;29810;55.848;37.368;2023-02-13T10:38:56;98552.84;;;1.12;78.64
44148;BME280;29810;55.848;37.368;2023-02-13T10:42:21;98536.63;;;1.07;78.35
44148;BME280;29810;55.848;37.368;2023-02-13T10:48:57;98531.53;;;1.01;77.83
44148;BME280;29810;55.848;37.368;2023-02-13T10:52:40;98524.50;;;1.20;79.48
44148;BME280;29810;55.848;37.368;2023-02-13T10:56:03;98523.53;;;1.32;78.73
44148;BME280;29810;55.848;37.368;2023-02-13T11:02:49;98502.94;;;1.37;79.98
44148;BME280;29810;55.848;37.368;2023-02-13T11:05:54;98513.25;;;1.34;80.41
44148;BME280;29810;55.848;37.368;2023-02-13T11:08:59;98500.75;;;0.96;80.40
44148;BME280;29810;55.848;37.368;2023-02-13T11:12:27;98506.87;;;0.85;81.23
44148;BME280;29810;55.848;37.368;2023-02-13T11:15:31;98505.16;;;0.87;82.38
44148;BME280;29810;55.848;37.368;2023-02-13T11:18:38;98504.41;;;0.74;82.87
44148;BME280;29810;55.848;37.368;2023-02-13T11:21:44;98500.91;;;0.84;82.50
44148;BME280;29810;55.848;37.368;2023-02-13T11:24:55;98498.41;;;0.75;81.73
44148;BME280;29810;55.848;37.368;2023-02-13T11:28:17;98493.31;;;0.69;82.91
44148;BME280;29810;55.848;37.368;2023-02-13T11:34:28;98477.03;;;0.73;82.98
44148;BME280;29810;55.848;37.368;2023-02-13T11:37:29;98465.09;;;0.70;83.10
44148;BME280;29810;55.848;37.368;2023-02-13T11:40:36;98460.72;;;0.78;83.19
44148;BME280;29810;55.848;37.368;2023-02-13T11:44:42;98444.44;;;0.84;82.55
44148;BME280;29810;55.848;37.368;2023-02-13T11:47:41;98447.75;;;0.92;82.92
44148;BME280;29810;55.848;37.368;2023-02-13T11:50:43;98440.09;;;0.91;82.42
44148;BME280;29810;55.848;37.368;2023-02-13T11:53:54;98431.53;;;0.92;81.88
44148;BME280;29810;55.848;37.368;2023-02-13T12:00:32;98434.03;;;0.96;81.43
44148;BME280;29810;55.848;37.368;2023-02-13T12:03:40;98425.91;;;1.34;81.58
44148;BME280;29810;55.848;37.368;2023-02-13T12:10:26;98415.37;;;1.54;80.14
44148;BME280;29810;55.848;37.368;2023-02-13T12:13:37;98420.59;;;1.47;79.12
44148;BME280;29810;55.848;37.368;2023-02-13T12:16:59;98417.28;;;1.39;80.50
44148;BME280;29810;55.848;37.368;2023-02-13T12:20:01;98419.81;;;1.44;80.11
44148;BME280;29810;55.848;37.368;2023-02-13T12:23:27;98413.13;;;1.29;80.08
44148;BME280;29810;55.848;37.368;2023-02-13T12:26:39;98417.31;;;1.35;80.00
44148;BME280;29810;55.848;37.368;2023-02-13T12:41:04;98406.13;;;1.42;80.72
44148;BME280;29810;55.848;37.368;2023-02-13T12:51:21;98375.34;;;1.39;81.27
44148;BME280;29810;55.848;37.368;2023-02-13T13:04:46;98350.75;;;1.18;82.20
44148;BME280;29810;55.848;37.368;2023-02-13T13:15:18;98356.78;;;1.18;83.88
44148;BME280;29810;55.848;37.368;2023-02-13T13:28:02;98351.94;;;0.93;84.98
44148;BME280;29810;55.848;37.368;2023-02-13T13:31:06;98341.09;;;0.70;85.74
44148;BME280;29810;55.848;37.368;2023-02-13T13:34:14;98346.78;;;0.93;86.38
44148;BME280;29810;55.848;37.368;2023-02-13T13:37:46;98345.66;;;1.16;87.09
44148;BME280;29810;55.848;37.368;2023-02-13T13:41:14;98342.03;;;1.32;86.27
44148;BME280;29810;55.848;37.368;2023-02-13T13:50:45;98314.09;;;1.08;87.23
44148;BME280;29810;55.848;37.368;2023-02-13T13:57:09;98317.47;;;1.13;88.58
44148;BME280;29810;55.848;37.368;2023-02-13T14:03:45;98317.75;;;0.88;89.79
44148;BME280;29810;55.848;37.368;2023-02-13T14:09:57;98314.47;;;0.77;91.26
44148;BME280;29810;55.848;37.368;2023-02-13T14:13:00;98302.50;;;0.77;91.47
44148;BME280;29810;55.848;37.368;2023-02-13T14:16:09;98301.63;;;0.77;92.18
44148;BME280;29810;55.848;37.368;2023-02-13T14:19:35;98295.81;;;0.65;91.99
44148;BME280;29810;55.848;37.368;2023-02-13T14:22:38;98291.44;;;0.72;92.55
44148;BME280;29810;55.848;37.368;2023-02-13T14:25:39;98290.88;;;0.45;92.03
44148;BME280;29810;55.848;37.368;2023-02-13T14:31:58;98259.59;;;0.12;92.59
44148;BME280;29810;55.848;37.368;2023-02-13T14:35:05;98291.03;;;0.31;93.60
44148;BME280;29810;55.848;37.368;2023-02-13T14:38:24;98288.50;;;0.27;93.85
44148;BME280;29810;55.848;37.368;2023-02-13T14:45:04;98281.56;;;0.35;94.21
44148;BME280;29810;55.848;37.368;2023-02-13T14:48:13;98273.84;;;0.40;94.37
44148;BME280;29810;55.848;37.368;2023-02-13T14:51:45;98258.47;;;0.40;94.11
44148;BME280;29810;55.848;37.368;2023-02-13T14:55:06;98263.44;;;0.52;94.10
44148;BME280;29810;55.848;37.368;2023-02-13T14:58:19;98259.19;;;0.51;93.83
44148;BME280;29810;55.848;37.368;2023-02-13T15:02:26;98250.69;;;0.47;93.47
44148;BME280;29810;55.848;37.368;2023-02-13T15:05:01;98242.91;;;0.55;93.66
44148;BME280;29810;55.848;37.368;2023-02-13T15:08:14;98238.66;;;0.49;93.00
44148;BME280;29810;55.848;37.368;2023-02-13T15:11:53;98225.16;;;0.35;93.45
44148;BME280;29810;55.848;37.368;2023-02-13T15:14:56;98202.16;;;0.30;93.82
44148;BME280;29810;55.848;37.368;2023-02-13T15:18:06;98208.06;;;0.37;94.34
44148;BME280;29810;55.848;37.368;2023-02-13T15:21:15;98210.59;;;0.39;94.48
44148;BME280;29810;55.848;37.368;2023-02-13T15:24:19;98195.28;;;0.32;94.28
44148;BME280;29810;55.848;37.368;2023-02-13T15:27:46;98208.09;;;0.32;94.36
44148;BME280;29810;55.848;37.368;2023-02-13T15:31:18;98161.38;;;0.09;94.53
44148;BME280;29810;55.848;37.368;2023-02-13T15:34:32;98203.13;;;0.20;94.85
44148;BME280;29810;55.848;37.368;2023-02-13T15:37:40;98180.00;;;0.23;94.98
44148;BME280;29810;55.848;37.368;2023-02-13T15:41:03;98170.59;;;0.25;95.10
44148;BME280;29810;55.848;37.368;2023-02-13T15:44:36;98173.16;;;0.22;95.48
44148;BME280;29810;55.848;37.368;2023-02-13T15:47:49;98175.03;;;0.11;95.92
44148;BME280;29810;55.848;37.368;2023-02-13T15:50:59;98165.66;;;0.08;96.51
44148;BME280;29810;55.848;37.368;2023-02-13T15:54:23;98173.31;;;0.10;96.52
44148;BME280;29810;55.848;37.368;2023-02-13T15:57:31;98165.41;;;0.28;97.09
44148;BME280;29810;55.848;37.368;2023-02-13T16:00:45;98154.22;;;0.36;97.09
44148;BME280;29810;55.848;37.368;2023-02-13T16:04:05;98160.19;;;0.36;96.61
44148;BME280;29810;55.848;37.368;2023-02-13T16:07:15;98157.72;;;0.28;96.91
44148;BME280;29810;55.848;37.368;2023-02-13T16:10:35;98157.72;;;0.28;97.07
44148;BME280;29810;55.848;37.368;2023-02-13T16:17:16;98135.16;;;0.55;96.83
44148;BME280;29810;55.848;37.368;2023-02-13T16:20:31;98122.34;;;0.55;96.86
44148;BME280;29810;55.848;37.368;2023-02-13T16:23:44;98107.75;;;0.57;96.39
44148;BME280;29810;55.848;37.368;2023-02-13T16:26:52;98107.62;;;0.68;96.33
44148;BME280;29810;55.848;37.368;2023-02-13T16:33:41;98095.69;;;0.64;95.37
44148;BME280;29810;55.848;37.368;2023-02-13T16:36:57;98084.53;;;0.68;94.89
44148;BME280;29810;55.848;37.368;2023-02-13T16:44:04;98075.09;;;0.69;95.02
44148;BME280;29810;55.848;37.368;2023-02-13T16:47:41;98070.91;;;0.64;95.04
44148;BME280;29810;55.848;37.368;2023-02-13T16:51:00;98061.50;;;0.63;95.18
44148;BME280;29810;55.848;37.368;2023-02-13T17:00:35;98052.59;;;0.86;94.75
44148;BME280;29810;55.848;37.368;2023-02-13T17:03:37;98053.41;;;0.88;94.26
44148;BME280;29810;55.848;37.368;2023-02-13T17:06:39;98047.47;;;0.85;94.05
44148;BME280;29810;55.848;37.368;2023-02-13T17:09:40;98045.78;;;0.83;94.25
44148;BME280;29810;55.848;37.368;2023-02-13T17:12:42;98048.34;;;0.85;93.96
44148;BME280;29810;55.848;37.368;2023-02-13T17:15:46;98041.53;;;0.82;94.34
44148;BME280;29810;55.848;37.368;2023-02-13T17:18:48;98045.00;;;0.78;94.77
44148;BME280;29810;55.848;37.368;2023-02-13T17:21:50;98040.53;;;0.91;95.05
44148;BME280;29810;55.848;37.368;2023-02-13T17:24:55;98021.78;;;0.86;94.77
44148;BME280;29810;55.848;37.368;2023-02-13T17:27:59;98019.22;;;0.88;94.91
44148;BME280;29810;55.848;37.368;2023-02-13T17:31:00;98017.25;;;1.01;95.11
44148;BME280;29810;55.848;37.368;2023-02-13T17:34:03;97998.50;;;0.98;94.94
44148;BME280;29810;55.848;37.368;2023-02-13T17:37:16;97997.59;;;1.01;94.93
44148;BME280;29810;55.848;37.368;2023-02-13T17:40:20;97996.66;;;1.05;95.08
44148;BME280;29810;55.848;37.368;2023-02-13T17:43:22;97991.75;;;0.91;95.34
44148;BME280;29810;55.848;37.368;2023-02-13T17:46:25;97982.50;;;0.84;95.93
44148;BME280;29810;55.848;37.368;2023-02-13T17:49:27;97970.69;;;0.74;96.25
44148;BME280;29810;55.848;37.368;2023-02-13T17:52:29;97970.03;;;0.61;96.86
44148;BME280;29810;55.848;37.368;2023-02-13T17:55:32;97968.13;;;0.74;97.55
44148;BME280;29810;55.848;37.368;2023-02-13T17:58:35;97963.84;;;0.73;97.75
44148;BME280;29810;55.848;37.368;2023-02-13T18:01:36;97962.38;;;0.59;98.00
44148;BME280;29810;55.848;37.368;2023-02-13T18:04:38;97959.88;;;0.55;98.66
44148;BME280;29810;55.848;37.368;2023-02-13T18:07:39;97947.09;;;0.53;99.45
44148;BME280;29810;55.848;37.368;2023-02-13T18:10:43;97957.22;;;0.61;99.80
44148;BME280;29810;55.848;37.368;2023-02-13T18:13:51;97941.78;;;0.62;100.00
44148;BME280;29810;55.848;37.368;2023-02-13T18:16:57;97951.97;;;0.69;100.00
44148;BME280;29810;55.848;37.368;2023-02-13T18:19:58;97937.31;;;0.75;100.00
44148;BME280;29810;55.848;37.368;2023-02-13T18:23:00;97936.41;;;0.78;100.00
44148;BME280;29810;55.848;37.368;2023-02-13T18:26:09;97928.56;;;0.86;100.00
44148;BME280;29810;55.848;37.368;2023-02-13T18:29:11;97920.59;;;1.01;100.00
44148;BME280;29810;55.848;37.368;2023-02-13T18:32:12;97911.28;;;0.94;100.00
44148;BME280;29810;55.848;37.368;2023-02-13T18:35:14;97916.47;;;0.92;100.00
44148;BME280;29810;55.848;37.368;2023-02-13T18:38:17;97900.16;;;0.95;100.00
44148;BME280;29810;55.848;37.368;2023-02-13T18:41:19;97903.91;;;0.77;99.74
44148;BME280;29810;55.848;37.368;2023-02-13T18:44:21;97876.44;;;0.82;100.00
44148;BME280;29810;55.848;37.368;2023-02-13T18:47:23;97876.34;;;0.88;100.00
44148;BME280;29810;55.848;37.368;2023-02-13T18:50:24;97876.22;;;0.94;100.00
44148;BME280;29810;55.848;37.368;2023-02-13T18:53:27;97878.88;;;0.90;100.00
44148;BME280;29810;55.848;37.368;2023-02-13T18:56:32;97874.63;;;0.87;100.00
44148;BME280;29810;55.848;37.368;2023-02-13T18:59:38;97867.78;;;0.89;100.00
44148;BME280;29810;55.848;37.368;2023-02-13T19:02:40;97860.75;;;0.97;100.00